METAR (acronimo di METeorological Air Report) è un messaggio meteo emesso nella maggior parte dei casi in ambito aeroportuale

SVMI - Caracas Simón Bolívar International Airport, Venezuela
Ultimo Aggiornamento: Giovedì 03 Dicembre 2020 17:02 CET
Sereno
Sereno
 Wind from Est-Nord-Est
Vento: Est-Nord-Est 17 km/h
Barometro: 1015 hPa
Nuvole: Sereno
2020/12/03 16:02 SVMI 031602Z AUTO 07009KT NCD ///// Q1015
SKBO - Bogotá El Dorado International Airport, Colombia
Ultimo Aggiornamento: Giovedì 03 Dicembre 2020 17:00 CET
Parzialmente Nuvoloso
Parzialmente Nuvoloso
 Wind from Nord
Vento: Nord 11 km/h
Temperatura: 17°C
Punto di Rugiada: 10°C
Umidità: 64%
Barometro: 1027 hPa
Nuvole: Parzialmente Nuvoloso
Visibilità: 10 km
Nuvole nel Dettaglio: Qualche Nuvola 610 m
Parzialmente Nuvoloso 2438 m
2020/12/03 16:00 SKBO 031600Z 35006KT 9999 FEW020 SCT080 17/10 Q1027 NOSIG RMK A3034
TFFF - Fort-de-France Martinique Aimé Césaire International Airport, Martinique
Ultimo Aggiornamento: Giovedì 03 Dicembre 2020 17:30 CET
Pioggia Leggera, Prevalentemente Nuvoloso
Pioggia Leggera, Prevalentemente Nuvoloso
 Wind from Est-Nord-Est
Vento: Est-Nord-Est 19 km/h
Temperatura: 28°C
Heat Index: 30°C
Punto di Rugiada: 22°C
Umidità: 70%
Barometro: 1014 hPa
Condizioni: Pioggia Leggera
Nuvole: Prevalentemente Nuvoloso
Visibilità: 10 km
Nuvole nel Dettaglio: Qualche Nuvola 1067 m
Prevalentemente Nuvoloso 1311 m
Prevalentemente Nuvoloso 1707 m
2020/12/03 16:30 TFFF 031630Z AUTO 07010KT 030V100 9999 -RA FEW035 BKN043 BKN056 28/22 Q1014 NOSIG
 
SEQM - Quito Mariscal Sucre International Airport, Ecuador
Ultimo Aggiornamento: Giovedì 03 Dicembre 2020 17:00 CET
Prevalentemente Nuvoloso
Prevalentemente Nuvoloso
 Wind from Nord-Nord-Est
Vento: Nord-Nord-Est 6 km/h
Temperatura: 20°C
Punto di Rugiada: 11°C
Umidità: 56%
Barometro: 1026 hPa
Nuvole: Prevalentemente Nuvoloso
Visibilità: 10 km
Nuvole nel Dettaglio: Parzialmente Nuvoloso 792 m
Prevalentemente Nuvoloso 3048 m
2020/12/03 16:00 SEQM 031600Z 03003KT 9999 SCT026 BKN100 20/11 Q1026 NOSIG RMK A3030
SEGS - Baltra Island, Galápagos, Ecuador
Ultimo Aggiornamento: Giovedì 03 Dicembre 2020 17:00 CET
Prevalentemente Nuvoloso
Prevalentemente Nuvoloso
 Wind from Sud-Est
Vento: Sud-Est 20 km/h
Temperatura: 25°C
Punto di Rugiada: 20°C
Umidità: 74%
Barometro: 1014 hPa
Nuvole: Prevalentemente Nuvoloso
Visibilità: 10 km
Nuvole nel Dettaglio: Prevalentemente Nuvoloso 610 m
2020/12/03 16:00 SEGS 031600Z 14011KT 9999 BKN020 25/20 Q1014 A2995
SPJC - Lima Jorge Chvez International Airport, Peru
Ultimo Aggiornamento: Giovedì 03 Dicembre 2020 17:00 CET
Prevalentemente Nuvoloso
Prevalentemente Nuvoloso
 Wind from Sud
Vento: Sud 15 km/h
Temperatura: 21°C
Punto di Rugiada: 16°C
Umidità: 73%
Barometro: 1014 hPa
Nuvole: Prevalentemente Nuvoloso
Visibilità: 10 km
Nuvole nel Dettaglio: Parzialmente Nuvoloso 396 m
Prevalentemente Nuvoloso 640 m
2020/12/03 16:00 SPJC 031600Z 18008KT 9999 SCT013 BKN021 21/16 Q1014 NOSIG RMK BIRD HAZARD RWY15 PP000
 
SLLP - La Paz El Alto International Airport, Bolivia
Ultimo Aggiornamento: Giovedì 03 Dicembre 2020 17:00 CET
Prevalentemente Nuvoloso
Prevalentemente Nuvoloso
 Wind from Sud-Est
Vento: Sud-Est 13 km/h
Temperatura: 12°C
Punto di Rugiada: 5°C
Umidità: 63%
Barometro: 1035 hPa
Nuvole: Prevalentemente Nuvoloso
Visibilità: 10 km
Nuvole nel Dettaglio: Parzialmente Nuvoloso 518 m
Qualche Nuvola 610 m
Prevalentemente Nuvoloso 6096 m
2020/12/03 16:00 SLLP 031600Z 13007KT 9999 SCT017 FEW020CB BKN200 12/05 Q1035
SBBR - Brasilia International Airport, Brazil
Ultimo Aggiornamento: Giovedì 03 Dicembre 2020 17:00 CET
Prevalentemente Nuvoloso
Prevalentemente Nuvoloso
 Wind from Nord-Ovest
Vento: Nord-Ovest 17 km/h
Temperatura: 31°C
Punto di Rugiada: 14°C
Umidità: 35%
Barometro: 1017 hPa
Nuvole: Prevalentemente Nuvoloso
Visibilità: 10 km
Nuvole nel Dettaglio: Prevalentemente Nuvoloso 1219 m
2020/12/03 16:00 SBBR 031600Z 31009KT 9999 BKN040 31/14 Q1017
SCEL - Santiago Comodoro Arturo Merino Benitez International Airport, Chile
Ultimo Aggiornamento: Giovedì 03 Dicembre 2020 17:00 CET
Sereno
Sereno
 Wind from Sud
Vento: Sud 17 km/h
Temperatura: 26°C
Punto di Rugiada: 7°C
Umidità: 30%
Barometro: 1013 hPa
Condizioni: Sereno
Visibilità: superiore a 10 km
2020/12/03 16:00 SCEL 031600Z 18009KT 120V240 CAVOK 26/07 Q1013 NOSIG
 
SCCI - Punta Arenas Presidente Carlos Ibañez del Campo International Airport, Chile
Ultimo Aggiornamento: Giovedì 03 Dicembre 2020 17:00 CET
Parzialmente Nuvoloso
Parzialmente Nuvoloso
 Wind from Ovest-Sud-Ovest
Vento: Ovest-Sud-Ovest 31 km/h
Temperatura: 10°C
Wind Chill: 7°C
Punto di Rugiada: 1°C
Umidità: 54%
Barometro: 1012 hPa
Nuvole: Parzialmente Nuvoloso
Visibilità: 10 km
Nuvole nel Dettaglio: Qualche Nuvola 884 m
Parzialmente Nuvoloso 1189 m
2020/12/03 16:00 SCCI 031600Z 25017KT 9999 FEW029 SCT039 10/01 Q1012 NOSIG
SCIP - Easter Island Mataveri International Airport, Chile
Ultimo Aggiornamento: Giovedì 03 Dicembre 2020 17:00 CET
Prevalentemente Nuvoloso
Prevalentemente Nuvoloso
 Wind from Nord-Ovest
Vento: Nord-Ovest 17 km/h
Temperatura: 24°C
Punto di Rugiada: 19°C
Umidità: 74%
Barometro: 1021 hPa
Nuvole: Prevalentemente Nuvoloso
Visibilità: 10 km
Nuvole nel Dettaglio: Qualche Nuvola 457 m
Parzialmente Nuvoloso 671 m
Prevalentemente Nuvoloso 7010 m
2020/12/03 16:00 SCIP 031600Z 32009KT 9999 FEW015 SCT022 BKN230 24/19 Q1021 NOSIG
SAEZ - Buenos Aires Ministro Pistarini International Airport, Argentina
Ultimo Aggiornamento: Giovedì 03 Dicembre 2020 17:00 CET
Sereno
Sereno
 Wind from Ovest-Nord-Ovest
Vento: Ovest-Nord-Ovest 6 km/h
Temperatura: 26°C
Punto di Rugiada: 9°C
Umidità: 34%
Barometro: 1008 hPa
Condizioni: Sereno
Visibilità: superiore a 10 km
2020/12/03 16:00 SAEZ 031600Z 29003KT CAVOK 26/09 Q1008 NOSIG
 
SAZM - Mar del Plata Astor Piazzolla International Airport, Argentina
Ultimo Aggiornamento: Giovedì 03 Dicembre 2020 17:00 CET
Sereno
Sereno
 Wind from Sud-Est
Vento: Sud-Est 22 km/h
Temperatura: 20°C
Punto di Rugiada: 13°C
Umidità: 64%
Barometro: 1008 hPa
Condizioni: Sereno
Visibilità: superiore a 10 km
2020/12/03 16:00 SAZM 031600Z 14012KT CAVOK 20/13 Q1008
SAWH - Ushuaia-Malvinas Argentinas International Airport, Argentina
Ultimo Aggiornamento: Giovedì 03 Dicembre 2020 17:00 CET
Prevalentemente Nuvoloso
Prevalentemente Nuvoloso
 Wind from Sud-Ovest
Vento: Sud-Ovest 37 km/h
Temperatura: 3°C
Wind Chill: -3°C
Punto di Rugiada: 0°C
Umidità: 81%
Barometro: 1009 hPa
Nuvole: Prevalentemente Nuvoloso
Visibilità: 10 km
Nuvole nel Dettaglio: Prevalentemente Nuvoloso 1067 m
Prevalentemente Nuvoloso 3048 m
2020/12/03 16:00 SAWH 031600Z 23020KT 9999 BKN035 BKN100 03/00 Q1009
EGYP - Stanley RAF Mount Pleasant, Falkland Islands
Ultimo Aggiornamento: Giovedì 03 Dicembre 2020 17:20 CET
Prevalentemente Nuvoloso
Prevalentemente Nuvoloso
 Wind from Sud-Sud-Ovest
Vento: Sud-Sud-Ovest 33 km/h
Temperatura: 6°C
Wind Chill: 1°C
Punto di Rugiada: 2°C
Umidità: 76%
Barometro: 994 hPa
Nuvole: Prevalentemente Nuvoloso
Visibilità: 10 km
Nuvole nel Dettaglio: Prevalentemente Nuvoloso 549 m
2020/12/03 16:20 EGYP 031620Z 21018KT 9999 BKN018CB 06/02 Q0994 TEMPO 7000 SHRASN